sensor_id;sensor_type;location;lat;lon;timestamp;pressure;altitude;pressure_sealevel;temperature;humidity
71126;BME280;58785;55.566;38.058;2023-06-24T00:02:24;99593.66;;;17.73;86.95
71126;BME280;58785;55.566;38.058;2023-06-24T00:04:50;99592.00;;;17.72;86.85
71126;BME280;58785;55.566;38.058;2023-06-24T00:07:18;99599.66;;;17.69;86.77
71126;BME280;58785;55.566;38.058;2023-06-24T00:09:47;99598.22;;;17.66;86.76
71126;BME280;58785;55.566;38.058;2023-06-24T00:12:13;99602.78;;;17.66;86.72
71126;BME280;58785;55.566;38.058;2023-06-24T00:14:45;99593.22;;;17.63;86.85
71126;BME280;58785;55.566;38.058;2023-06-24T00:17:11;99597.59;;;17.64;86.62
71126;BME280;58785;55.566;38.058;2023-06-24T00:19:36;99602.16;;;17.64;86.48
71126;BME280;58785;55.566;38.058;2023-06-24T00:22:02;99591.16;;;17.59;86.54
71126;BME280;58785;55.566;38.058;2023-06-24T00:24:28;99597.78;;;17.63;86.44
71126;BME280;58785;55.566;38.058;2023-06-24T00:26:56;99596.13;;;17.62;86.42
71126;BME280;58785;55.566;38.058;2023-06-24T00:29:22;99587.41;;;17.60;86.40
71126;BME280;58785;55.566;38.058;2023-06-24T00:31:48;99587.41;;;17.60;86.25
71126;BME280;58785;55.566;38.058;2023-06-24T00:34:14;99568.97;;;17.57;86.27
71126;BME280;58785;55.566;38.058;2023-06-24T00:36:40;99574.13;;;17.58;86.14
71126;BME280;58785;55.566;38.058;2023-06-24T00:39:06;99576.59;;;17.53;86.24
71126;BME280;58785;55.566;38.058;2023-06-24T00:41:35;99586.38;;;17.54;86.21
71126;BME280;58785;55.566;38.058;2023-06-24T00:44:01;99587.59;;;17.51;86.05
71126;BME280;58785;55.566;38.058;2023-06-24T00:46:28;99595.47;;;17.53;86.08
71126;BME280;58785;55.566;38.058;2023-06-24T00:48:55;99594.66;;;17.52;86.09
71126;BME280;58785;55.566;38.058;2023-06-24T00:51:21;99589.47;;;17.51;86.33
71126;BME280;58785;55.566;38.058;2023-06-24T00:53:52;99577.44;;;17.47;86.02
71126;BME280;58785;55.566;38.058;2023-06-24T00:56:20;99578.69;;;17.44;86.06
71126;BME280;58785;55.566;38.058;2023-06-24T00:58:47;99583.66;;;17.47;86.08
71126;BME280;58785;55.566;38.058;2023-06-24T01:01:14;99577.88;;;17.44;86.21
71126;BME280;58785;55.566;38.058;2023-06-24T01:03:40;99576.38;;;17.41;86.07
71126;BME280;58785;55.566;38.058;2023-06-24T01:06:08;99580.56;;;17.44;85.85
71126;BME280;58785;55.566;38.058;2023-06-24T01:08:35;99569.56;;;17.39;85.90
71126;BME280;58785;55.566;38.058;2023-06-24T01:11:01;99572.66;;;17.42;85.79
71126;BME280;58785;55.566;38.058;2023-06-24T01:13:26;99573.47;;;17.43;85.85
71126;BME280;58785;55.566;38.058;2023-06-24T01:15:52;99575.34;;;17.42;85.61
71126;BME280;58785;55.566;38.058;2023-06-24T01:18:35;99567.47;;;17.41;85.60
71126;BME280;58785;55.566;38.058;2023-06-24T01:21:13;99575.38;;;17.49;85.76
71126;BME280;58785;55.566;38.058;2023-06-24T01:34:33;99596.97;;;17.56;85.03
71126;BME280;58785;55.566;38.058;2023-06-24T01:40:24;99603.38;;;17.61;85.08
71126;BME280;58785;55.566;38.058;2023-06-24T01:42:50;99593.84;;;17.59;84.92
71126;BME280;58785;55.566;38.058;2023-06-24T01:45:26;99601.94;;;17.65;84.85
71126;BME280;58785;55.566;38.058;2023-06-24T01:48:00;99594.28;;;17.69;84.72
71126;BME280;58785;55.566;38.058;2023-06-24T01:50:31;99588.03;;;17.68;84.70
71126;BME280;58785;55.566;38.058;2023-06-24T01:52:58;99592.44;;;17.76;84.45
71126;BME280;58785;55.566;38.058;2023-06-24T01:55:26;99584.56;;;17.74;84.38
71126;BME280;58785;55.566;38.058;2023-06-24T01:57:55;99595.56;;;17.79;84.46
71126;BME280;58785;55.566;38.058;2023-06-24T02:00:23;99605.09;;;17.89;84.04
71126;BME280;58785;55.566;38.058;2023-06-24T02:02:50;99598.25;;;17.93;84.08
71126;BME280;58785;55.566;38.058;2023-06-24T02:05:18;99591.19;;;17.98;84.16
71126;BME280;58785;55.566;38.058;2023-06-24T02:07:46;99585.19;;;17.96;83.74
71126;BME280;58785;55.566;38.058;2023-06-24T02:10:15;99588.06;;;18.01;83.68
71126;BME280;58785;55.566;38.058;2023-06-24T02:12:42;99605.94;;;18.09;83.75
71126;BME280;58785;55.566;38.058;2023-06-24T02:15:10;99590.78;;;18.15;83.58
71126;BME280;58785;55.566;38.058;2023-06-24T02:17:37;99600.72;;;18.21;83.52
71126;BME280;58785;55.566;38.058;2023-06-24T02:20:25;99600.94;;;18.26;83.45
71126;BME280;58785;55.566;38.058;2023-06-24T02:22:55;99604.25;;;18.28;83.36
71126;BME280;58785;55.566;38.058;2023-06-24T02:25:23;99612.75;;;18.31;83.36
71126;BME280;58785;55.566;38.058;2023-06-24T02:27:50;99610.47;;;18.35;83.28
71126;BME280;58785;55.566;38.058;2023-06-24T02:30:19;99603.00;;;18.30;82.75
71126;BME280;58785;55.566;38.058;2023-06-24T02:32:46;99599.44;;;18.43;82.48
71126;BME280;58785;55.566;38.058;2023-06-24T02:35:11;99610.66;;;18.47;81.62
71126;BME280;58785;55.566;38.058;2023-06-24T02:37:37;99598.00;;;18.41;81.24
71126;BME280;58785;55.566;38.058;2023-06-24T02:40:04;99604.44;;;18.39;80.91
71126;BME280;58785;55.566;38.058;2023-06-24T02:42:31;99600.28;;;18.37;80.58
71126;BME280;58785;55.566;38.058;2023-06-24T02:44:57;99605.25;;;18.66;79.80
71126;BME280;58785;55.566;38.058;2023-06-24T02:47:23;99616.44;;;18.77;78.95
71126;BME280;58785;55.566;38.058;2023-06-24T02:49:50;99605.63;;;18.77;78.36
71126;BME280;58785;55.566;38.058;2023-06-24T02:52:16;99612.75;;;19.09;77.45
71126;BME280;58785;55.566;38.058;2023-06-24T02:54:42;99602.00;;;19.41;76.90
71126;BME280;58785;55.566;38.058;2023-06-24T02:57:09;99614.69;;;19.78;75.67
71126;BME280;58785;55.566;38.058;2023-06-24T02:59:36;99610.22;;;20.16;74.81
71126;BME280;58785;55.566;38.058;2023-06-24T03:02:03;99608.41;;;20.53;73.98
71126;BME280;58785;55.566;38.058;2023-06-24T03:04:31;99603.06;;;20.83;73.34
71126;BME280;58785;55.566;38.058;2023-06-24T03:06:57;99609.00;;;21.10;72.61
71126;BME280;58785;55.566;38.058;2023-06-24T03:09:26;99601.81;;;21.34;71.94
71126;BME280;58785;55.566;38.058;2023-06-24T03:11:52;99610.69;;;21.41;71.32
71126;BME280;58785;55.566;38.058;2023-06-24T03:14:18;99606.97;;;21.53;70.84
71126;BME280;58785;55.566;38.058;2023-06-24T03:16:44;99603.94;;;21.73;69.84
71126;BME280;58785;55.566;38.058;2023-06-24T03:19:10;99613.00;;;21.56;70.12
71126;BME280;58785;55.566;38.058;2023-06-24T03:21:36;99611.84;;;21.33;70.17
71126;BME280;58785;55.566;38.058;2023-06-24T03:24:02;99612.47;;;20.99;69.98
71126;BME280;58785;55.566;38.058;2023-06-24T03:26:38;99606.47;;;20.78;70.17
71126;BME280;58785;55.566;38.058;2023-06-24T03:29:03;99604.59;;;20.79;69.98
71126;BME280;58785;55.566;38.058;2023-06-24T03:31:30;99606.28;;;21.10;69.21
71126;BME280;58785;55.566;38.058;2023-06-24T03:33:56;99605.16;;;21.36;68.11
71126;BME280;58785;55.566;38.058;2023-06-24T03:36:21;99605.50;;;21.21;67.71
71126;BME280;58785;55.566;38.058;2023-06-24T03:38:47;99610.31;;;20.89;68.80
71126;BME280;58785;55.566;38.058;2023-06-24T03:41:13;99619.66;;;20.56;69.30
71126;BME280;58785;55.566;38.058;2023-06-24T03:43:39;99617.06;;;20.18;70.05
71126;BME280;58785;55.566;38.058;2023-06-24T03:46:05;99608.50;;;19.96;70.78
71126;BME280;58785;55.566;38.058;2023-06-24T03:48:30;99613.13;;;19.89;70.94
71126;BME280;58785;55.566;38.058;2023-06-24T03:50:56;99618.09;;;19.92;70.99
71126;BME280;58785;55.566;38.058;2023-06-24T03:53:22;99626.00;;;19.94;71.04
71126;BME280;58785;55.566;38.058;2023-06-24T03:55:47;99614.75;;;19.97;71.25
71126;BME280;58785;55.566;38.058;2023-06-24T03:58:13;99616.78;;;20.01;71.51
71126;BME280;58785;55.566;38.058;2023-06-24T04:00:39;99609.75;;;19.94;71.73
71126;BME280;58785;55.566;38.058;2023-06-24T04:03:06;99618.59;;;19.83;72.13
71126;BME280;58785;55.566;38.058;2023-06-24T04:05:33;99608.66;;;19.76;72.26
71126;BME280;58785;55.566;38.058;2023-06-24T04:07:59;99615.94;;;19.76;72.53
71126;BME280;58785;55.566;38.058;2023-06-24T04:10:25;99614.50;;;19.73;72.17
71126;BME280;58785;55.566;38.058;2023-06-24T04:12:51;99627.84;;;19.68;72.64
71126;BME280;58785;55.566;38.058;2023-06-24T04:15:17;99615.88;;;19.58;72.84
71126;BME280;58785;55.566;38.058;2023-06-24T04:17:43;99626.47;;;19.59;72.83
71126;BME280;58785;55.566;38.058;2023-06-24T04:20:09;99627.28;;;19.60;73.02
71126;BME280;58785;55.566;38.058;2023-06-24T04:22:39;99624.59;;;19.60;73.10
71126;BME280;58785;55.566;38.058;2023-06-24T04:25:06;99617.97;;;19.49;72.89
71126;BME280;58785;55.566;38.058;2023-06-24T04:27:33;99625.69;;;19.45;72.53
71126;BME280;58785;55.566;38.058;2023-06-24T04:30:00;99638.19;;;19.40;72.61
71126;BME280;58785;55.566;38.058;2023-06-24T04:32:26;99635.50;;;19.33;72.35
71126;BME280;58785;55.566;38.058;2023-06-24T04:34:51;99631.16;;;19.32;72.40
71126;BME280;58785;55.566;38.058;2023-06-24T04:37:17;99639.94;;;19.28;72.59
71126;BME280;58785;55.566;38.058;2023-06-24T04:39:44;99637.06;;;19.16;72.28
71126;BME280;58785;55.566;38.058;2023-06-24T04:42:09;99648.72;;;19.16;72.21
71126;BME280;58785;55.566;38.058;2023-06-24T04:44:36;99652.69;;;19.07;72.27
71126;BME280;58785;55.566;38.058;2023-06-24T04:47:02;99652.09;;;18.99;72.63
71126;BME280;58785;55.566;38.058;2023-06-24T04:49:28;99655.84;;;18.91;72.46
71126;BME280;58785;55.566;38.058;2023-06-24T04:51:53;99660.44;;;18.90;72.64
71126;BME280;58785;55.566;38.058;2023-06-24T04:54:19;99665.00;;;18.90;72.58
71126;BME280;58785;55.566;38.058;2023-06-24T04:56:46;99661.31;;;18.84;72.65
71126;BME280;58785;55.566;38.058;2023-06-24T04:59:14;99666.06;;;18.82;72.65
71126;BME280;58785;55.566;38.058;2023-06-24T05:01:40;99652.53;;;18.89;72.49
71126;BME280;58785;55.566;38.058;2023-06-24T05:04:06;99663.09;;;19.04;71.90
71126;BME280;58785;55.566;38.058;2023-06-24T05:06:31;99659.53;;;19.10;71.45
71126;BME280;58785;55.566;38.058;2023-06-24T05:08:57;99665.53;;;19.18;71.48
71126;BME280;58785;55.566;38.058;2023-06-24T05:11:23;99667.13;;;19.33;71.29
71126;BME280;58785;55.566;38.058;2023-06-24T05:13:48;99665.63;;;19.43;70.94
71126;BME280;58785;55.566;38.058;2023-06-24T05:16:14;99663.50;;;19.52;70.85
71126;BME280;58785;55.566;38.058;2023-06-24T05:18:43;99670.03;;;19.38;70.68
71126;BME280;58785;55.566;38.058;2023-06-24T05:21:09;99661.56;;;19.28;70.79
71126;BME280;58785;55.566;38.058;2023-06-24T05:23:34;99667.13;;;19.33;70.66
71126;BME280;58785;55.566;38.058;2023-06-24T05:26:00;99665.84;;;19.42;70.52
71126;BME280;58785;55.566;38.058;2023-06-24T05:28:26;99664.59;;;19.44;70.24
71126;BME280;58785;55.566;38.058;2023-06-24T05:30:52;99659.22;;;19.31;70.58
71126;BME280;58785;55.566;38.058;2023-06-24T05:33:17;99656.81;;;19.16;70.81
71126;BME280;58785;55.566;38.058;2023-06-24T05:35:43;99658.94;;;19.08;71.00
71126;BME280;58785;55.566;38.058;2023-06-24T05:38:09;99666.66;;;19.04;71.02
71126;BME280;58785;55.566;38.058;2023-06-24T05:40:35;99663.34;;;18.95;71.20
71126;BME280;58785;55.566;38.058;2023-06-24T05:43:00;99659.38;;;18.91;71.32
71126;BME280;58785;55.566;38.058;2023-06-24T05:45:28;99661.25;;;18.91;71.35
71126;BME280;58785;55.566;38.058;2023-06-24T05:47:54;99651.72;;;18.95;71.00
71126;BME280;58785;55.566;38.058;2023-06-24T05:50:20;99664.50;;;19.13;71.23
71126;BME280;58785;55.566;38.058;2023-06-24T05:52:47;99659.53;;;19.16;70.70
71126;BME280;58785;55.566;38.058;2023-06-24T05:55:13;99661.81;;;19.13;70.65
71126;BME280;58785;55.566;38.058;2023-06-24T05:57:39;99672.00;;;19.17;70.75
71126;BME280;58785;55.566;38.058;2023-06-24T06:00:06;99667.03;;;19.14;70.68
71126;BME280;58785;55.566;38.058;2023-06-24T06:02:33;99672.22;;;19.09;70.88
71126;BME280;58785;55.566;38.058;2023-06-24T06:05:00;99682.84;;;19.04;71.21
71126;BME280;58785;55.566;38.058;2023-06-24T06:07:29;99677.03;;;19.01;71.21
71126;BME280;58785;55.566;38.058;2023-06-24T06:09:56;99682.22;;;19.02;71.25
71126;BME280;58785;55.566;38.058;2023-06-24T06:12:22;99682.03;;;18.97;71.32
71126;BME280;58785;55.566;38.058;2023-06-24T06:14:48;99690.16;;;18.90;71.47
71126;BME280;58785;55.566;38.058;2023-06-24T06:17:14;99693.28;;;18.81;71.48
71126;BME280;58785;55.566;38.058;2023-06-24T06:19:41;99697.28;;;18.65;71.94
71126;BME280;58785;55.566;38.058;2023-06-24T06:22:07;99687.91;;;18.61;72.05
71126;BME280;58785;55.566;38.058;2023-06-24T06:24:34;99688.97;;;18.66;72.36
71126;BME280;58785;55.566;38.058;2023-06-24T06:27:00;99682.53;;;18.67;72.16
71126;BME280;58785;55.566;38.058;2023-06-24T06:29:26;99687.69;;;18.82;72.00
71126;BME280;58785;55.566;38.058;2023-06-24T06:31:52;99690.97;;;18.91;71.93
71126;BME280;58785;55.566;38.058;2023-06-24T06:34:19;99687.03;;;18.93;71.67
71126;BME280;58785;55.566;38.058;2023-06-24T06:36:45;99684.75;;;18.90;71.52
71126;BME280;58785;55.566;38.058;2023-06-24T06:39:11;99687.03;;;18.93;71.67
71126;BME280;58785;55.566;38.058;2023-06-24T06:41:37;99687.66;;;18.95;71.91
71126;BME280;58785;55.566;38.058;2023-06-24T06:44:03;99689.72;;;18.93;72.15
71126;BME280;58785;55.566;38.058;2023-06-24T06:46:29;99690.16;;;18.97;72.47
71126;BME280;58785;55.566;38.058;2023-06-24T06:48:55;99684.31;;;19.00;72.23
71126;BME280;58785;55.566;38.058;2023-06-24T06:51:21;99684.91;;;19.02;72.20
71126;BME280;58785;55.566;38.058;2023-06-24T06:53:47;99685.13;;;19.01;72.18
71126;BME280;58785;55.566;38.058;2023-06-24T06:56:22;99695.34;;;18.99;72.45
71126;BME280;58785;55.566;38.058;2023-06-24T06:58:48;99684.53;;;18.99;72.34
71126;BME280;58785;55.566;38.058;2023-06-24T07:01:13;99677.69;;;18.96;72.54
71126;BME280;58785;55.566;38.058;2023-06-24T07:03:40;99683.47;;;19.00;72.44
71126;BME280;58785;55.566;38.058;2023-06-24T07:06:05;99693.47;;;19.06;72.78
71126;BME280;58785;55.566;38.058;2023-06-24T07:08:31;99690.09;;;19.04;72.42
71126;BME280;58785;55.566;38.058;2023-06-24T07:10:57;99691.38;;;19.01;72.69
71126;BME280;58785;55.566;38.058;2023-06-24T07:13:23;99689.31;;;18.97;72.77
71126;BME280;58785;55.566;38.058;2023-06-24T07:15:48;99696.00;;;18.94;72.68
71126;BME280;58785;55.566;38.058;2023-06-24T07:18:15;99698.88;;;18.92;72.63
71126;BME280;58785;55.566;38.058;2023-06-24T07:20:40;99701.63;;;18.79;73.12
71126;BME280;58785;55.566;38.058;2023-06-24T07:23:06;99702.25;;;18.68;73.12
71126;BME280;58785;55.566;38.058;2023-06-24T07:25:32;99702.00;;;18.63;73.30
71126;BME280;58785;55.566;38.058;2023-06-24T07:27:58;99690.41;;;18.49;73.17
71126;BME280;58785;55.566;38.058;2023-06-24T07:30:23;99696.84;;;18.48;73.44
71126;BME280;58785;55.566;38.058;2023-06-24T07:32:49;99709.13;;;18.44;73.41
71126;BME280;58785;55.566;38.058;2023-06-24T07:35:15;99701.84;;;18.45;73.36
71126;BME280;58785;55.566;38.058;2023-06-24T07:37:42;99702.88;;;18.50;73.40
71126;BME280;58785;55.566;38.058;2023-06-24T07:40:08;99714.50;;;18.51;73.20
71126;BME280;58785;55.566;38.058;2023-06-24T07:42:34;99703.91;;;18.49;73.26
71126;BME280;58785;55.566;38.058;2023-06-24T07:45:00;99710.13;;;18.50;73.17
71126;BME280;58785;55.566;38.058;2023-06-24T07:47:26;99707.84;;;18.53;73.08
71126;BME280;58785;55.566;38.058;2023-06-24T07:49:52;99716.34;;;18.63;72.62
71126;BME280;58785;55.566;38.058;2023-06-24T07:52:18;99708.25;;;18.63;72.89
71126;BME280;58785;55.566;38.058;2023-06-24T07:54:44;99721.97;;;18.62;72.90
71126;BME280;58785;55.566;38.058;2023-06-24T07:57:10;99723.84;;;18.61;72.83
71126;BME280;58785;55.566;38.058;2023-06-24T07:59:37;99725.91;;;18.59;72.78
71126;BME280;58785;55.566;38.058;2023-06-24T08:02:03;99727.56;;;18.60;73.20
71126;BME280;58785;55.566;38.058;2023-06-24T08:04:29;99733.59;;;18.62;73.10
71126;BME280;58785;55.566;38.058;2023-06-24T08:06:55;99737.94;;;18.63;73.18
71126;BME280;58785;55.566;38.058;2023-06-24T08:09:21;99722.38;;;18.52;73.31
71126;BME280;58785;55.566;38.058;2023-06-24T08:11:47;99724.47;;;18.50;73.14
71126;BME280;58785;55.566;38.058;2023-06-24T08:14:13;99746.28;;;18.55;73.11
71126;BME280;58785;55.566;38.058;2023-06-24T08:16:39;99747.13;;;18.49;73.30
71126;BME280;58785;55.566;38.058;2023-06-24T08:19:05;99751.47;;;18.44;73.50
71126;BME280;58785;55.566;38.058;2023-06-24T08:21:31;99749.59;;;18.37;73.58
71126;BME280;58785;55.566;38.058;2023-06-24T08:23:58;99745.03;;;18.38;73.79
71126;BME280;58785;55.566;38.058;2023-06-24T08:26:24;99748.75;;;18.44;73.70
71126;BME280;58785;55.566;38.058;2023-06-24T08:28:50;99744.22;;;18.44;74.03
71126;BME280;58785;55.566;38.058;2023-06-24T08:31:16;99749.81;;;18.49;73.63
71126;BME280;58785;55.566;38.058;2023-06-24T08:33:45;99751.03;;;18.53;73.73
71126;BME280;58785;55.566;38.058;2023-06-24T08:36:11;99741.72;;;18.49;73.72
71126;BME280;58785;55.566;38.058;2023-06-24T08:38:37;99747.94;;;18.50;73.82
71126;BME280;58785;55.566;38.058;2023-06-24T08:41:02;99757.91;;;18.56;74.02
71126;BME280;58785;55.566;38.058;2023-06-24T08:43:28;99758.75;;;18.56;73.78
71126;BME280;58785;55.566;38.058;2023-06-24T08:45:54;99760.41;;;18.57;74.09
71126;BME280;58785;55.566;38.058;2023-06-24T08:48:21;99760.19;;;18.52;73.85
71126;BME280;58785;55.566;38.058;2023-06-24T08:50:51;99768.09;;;18.47;73.84
71126;BME280;58785;55.566;38.058;2023-06-24T08:53:18;99771.19;;;18.37;74.08
71126;BME280;58785;55.566;38.058;2023-06-24T08:55:46;99763.72;;;18.33;74.19
71126;BME280;58785;55.566;38.058;2023-06-24T08:58:13;99770.16;;;18.32;74.54
71126;BME280;58785;55.566;38.058;2023-06-24T09:00:39;99764.53;;;18.27;74.55
71126;BME280;58785;55.566;38.058;2023-06-24T09:03:07;99776.59;;;18.24;74.82
71126;BME280;58785;55.566;38.058;2023-06-24T09:05:32;99760.16;;;18.19;74.83
71126;BME280;58785;55.566;38.058;2023-06-24T09:07:58;99771.00;;;18.26;74.97
71126;BME280;58785;55.566;38.058;2023-06-24T09:12:57;99784.03;;;18.22;75.10
71126;BME280;58785;55.566;38.058;2023-06-24T09:15:23;99782.19;;;18.16;75.46
71126;BME280;58785;55.566;38.058;2023-06-24T09:17:48;99786.50;;;18.10;76.12
71126;BME280;58785;55.566;38.058;2023-06-24T09:20:14;99792.09;;;18.02;76.30
71126;BME280;58785;55.566;38.058;2023-06-24T09:22:45;99786.91;;;18.01;76.48
71126;BME280;58785;55.566;38.058;2023-06-24T09:25:17;99800.22;;;18.09;76.45
71126;BME280;58785;55.566;38.058;2023-06-24T09:27:49;99786.94;;;18.07;76.50
71126;BME280;58785;55.566;38.058;2023-06-24T09:30:18;99804.16;;;18.13;76.52
71126;BME280;58785;55.566;38.058;2023-06-24T09:32:51;99797.94;;;18.06;76.79
71126;BME280;58785;55.566;38.058;2023-06-24T09:35:22;99810.97;;;18.02;77.20
71126;BME280;58785;55.566;38.058;2023-06-24T09:37:52;99816.16;;;17.97;77.89
71126;BME280;58785;55.566;38.058;2023-06-24T09:40:19;99806.34;;;17.83;77.96
71126;BME280;58785;55.566;38.058;2023-06-24T09:42:52;99815.50;;;17.89;78.44
71126;BME280;58785;55.566;38.058;2023-06-24T09:45:26;99816.13;;;17.84;78.69
71126;BME280;58785;55.566;38.058;2023-06-24T09:47:53;99819.88;;;17.90;78.46
71126;BME280;58785;55.566;38.058;2023-06-24T09:50:19;99813.06;;;17.94;78.47
71126;BME280;58785;55.566;38.058;2023-06-24T09:52:46;99823.22;;;17.98;79.28
71126;BME280;58785;55.566;38.058;2023-06-24T09:55:16;99829.84;;;17.89;79.54
71126;BME280;58785;55.566;38.058;2023-06-24T09:57:47;99846.22;;;17.88;79.57
71126;BME280;58785;55.566;38.058;2023-06-24T10:00:14;99841.03;;;17.93;79.58
71126;BME280;58785;55.566;38.058;2023-06-24T10:02:42;99848.72;;;17.89;79.45
71126;BME280;58785;55.566;38.058;2023-06-24T10:05:08;99856.59;;;17.91;79.58
71126;BME280;58785;55.566;38.058;2023-06-24T10:07:34;99856.75;;;17.83;79.40
71126;BME280;58785;55.566;38.058;2023-06-24T10:10:03;99868.59;;;17.75;79.72
71126;BME280;58785;55.566;38.058;2023-06-24T10:12:32;99849.94;;;17.45;80.33
71126;BME280;58785;55.566;38.058;2023-06-24T10:14:59;99868.94;;;17.37;80.76
71126;BME280;58785;55.566;38.058;2023-06-24T10:17:26;99867.28;;;17.36;81.13
71126;BME280;58785;55.566;38.058;2023-06-24T10:19:53;99868.31;;;17.35;80.96
71126;BME280;58785;55.566;38.058;2023-06-24T10:22:25;99865.16;;;17.32;81.12
71126;BME280;58785;55.566;38.058;2023-06-24T10:24:54;99881.00;;;17.41;80.84
71126;BME280;58785;55.566;38.058;2023-06-24T10:27:22;99865.00;;;17.40;80.59
71126;BME280;58785;55.566;38.058;2023-06-24T10:29:50;99876.28;;;17.50;80.52
71126;BME280;58785;55.566;38.058;2023-06-24T10:32:17;99871.50;;;17.52;80.16
71126;BME280;58785;55.566;38.058;2023-06-24T10:34:45;99873.38;;;17.51;80.14
71126;BME280;58785;55.566;38.058;2023-06-24T10:39:48;99883.72;;;17.76;79.62
71126;BME280;58785;55.566;38.058;2023-06-24T10:44:50;99885.78;;;18.22;78.43
71126;BME280;58785;55.566;38.058;2023-06-24T10:47:17;99877.09;;;18.26;77.79
71126;BME280;58785;55.566;38.058;2023-06-24T10:49:43;99875.66;;;18.44;77.15
71126;BME280;58785;55.566;38.058;2023-06-24T10:52:10;99885.44;;;18.45;77.07
71126;BME280;58785;55.566;38.058;2023-06-24T10:54:37;99896.81;;;18.33;77.66
71126;BME280;58785;55.566;38.058;2023-06-24T10:57:07;99897.53;;;18.01;77.41
71126;BME280;58785;55.566;38.058;2023-06-24T10:59:40;99885.59;;;17.75;78.23
71126;BME280;58785;55.566;38.058;2023-06-24T11:02:13;99899.59;;;17.64;78.52
71126;BME280;58785;55.566;38.058;2023-06-24T11:04:50;99896.59;;;17.52;79.34
71126;BME280;58785;55.566;38.058;2023-06-24T11:07:22;99900.31;;;17.45;79.20
71126;BME280;58785;55.566;38.058;2023-06-24T11:09:57;99894.25;;;17.36;79.46
71126;BME280;58785;55.566;38.058;2023-06-24T11:12:43;99906.47;;;17.39;79.57
71126;BME280;58785;55.566;38.058;2023-06-24T11:15:11;99905.38;;;17.33;79.41
71126;BME280;58785;55.566;38.058;2023-06-24T11:17:37;99914.13;;;17.35;79.30
71126;BME280;58785;55.566;38.058;2023-06-24T11:20:11;99922.44;;;17.40;79.32
71126;BME280;58785;55.566;38.058;2023-06-24T11:22:39;99916.84;;;17.35;79.24
71126;BME280;58785;55.566;38.058;2023-06-24T11:25:05;99915.81;;;17.36;79.26
71126;BME280;58785;55.566;38.058;2023-06-24T11:27:31;99927.06;;;17.46;78.79
71126;BME280;58785;55.566;38.058;2023-06-24T11:29:59;99921.28;;;17.49;78.86
71126;BME280;58785;55.566;38.058;2023-06-24T11:32:37;99934.97;;;17.48;78.68
71126;BME280;58785;55.566;38.058;2023-06-24T11:35:08;99937.44;;;17.49;78.83
71126;BME280;58785;55.566;38.058;2023-06-24T11:37:34;99939.94;;;17.51;78.69
71126;BME280;58785;55.566;38.058;2023-06-24T11:40:02;99943.28;;;17.53;78.75
71126;BME280;58785;55.566;38.058;2023-06-24T11:42:36;99952.41;;;17.52;78.64
71126;BME280;58785;55.566;38.058;2023-06-24T11:45:07;99960.47;;;17.45;78.70
71126;BME280;58785;55.566;38.058;2023-06-24T11:47:34;99947.53;;;17.41;78.73
71126;BME280;58785;55.566;38.058;2023-06-24T11:50:01;99946.28;;;17.37;78.73
71126;BME280;58785;55.566;38.058;2023-06-24T11:52:47;99943.28;;;17.25;79.29
71126;BME280;58785;55.566;38.058;2023-06-24T11:55:18;99950.97;;;17.28;79.50
71126;BME280;58785;55.566;38.058;2023-06-24T11:57:55;99953.06;;;17.33;79.29
71126;BME280;58785;55.566;38.058;2023-06-24T12:00:45;99959.38;;;17.40;79.48
71126;BME280;58785;55.566;38.058;2023-06-24T12:03:12;99966.06;;;17.50;78.94
71126;BME280;58785;55.566;38.058;2023-06-24T12:05:39;99959.63;;;17.73;78.31
71126;BME280;58785;55.566;38.058;2023-06-24T12:08:11;99943.97;;;17.90;77.73
71126;BME280;58785;55.566;38.058;2023-06-24T12:10:38;99957.03;;;17.93;77.66
71126;BME280;58785;55.566;38.058;2023-06-24T12:13:05;99943.75;;;17.85;77.35
71126;BME280;58785;55.566;38.058;2023-06-24T12:15:32;99957.03;;;17.86;77.25
71126;BME280;58785;55.566;38.058;2023-06-24T12:17:58;99959.28;;;17.83;77.55
71126;BME280;58785;55.566;38.058;2023-06-24T12:20:25;99970.47;;;17.79;77.16
71126;BME280;58785;55.566;38.058;2023-06-24T12:22:54;99959.44;;;17.74;77.18
71126;BME280;58785;55.566;38.058;2023-06-24T12:25:21;99952.66;;;17.57;77.20
71126;BME280;58785;55.566;38.058;2023-06-24T12:27:47;99949.34;;;17.55;77.93
71126;BME280;58785;55.566;38.058;2023-06-24T12:30:16;99963.19;;;17.52;78.34
71126;BME280;58785;55.566;38.058;2023-06-24T12:32:42;99965.84;;;17.45;78.50
71126;BME280;58785;55.566;38.058;2023-06-24T12:35:08;99970.97;;;17.40;78.71
71126;BME280;58785;55.566;38.058;2023-06-24T12:37:37;99976.38;;;17.40;78.92
71126;BME280;58785;55.566;38.058;2023-06-24T12:40:03;99971.88;;;17.47;78.71
71126;BME280;58785;55.566;38.058;2023-06-24T12:42:43;99971.59;;;17.64;78.18
71126;BME280;58785;55.566;38.058;2023-06-24T12:45:14;99970.75;;;17.91;77.28
71126;BME280;58785;55.566;38.058;2023-06-24T12:47:40;99978.63;;;18.27;76.57
71126;BME280;58785;55.566;38.058;2023-06-24T12:50:06;99978.72;;;18.47;76.02
71126;BME280;58785;55.566;38.058;2023-06-24T12:52:33;99980.78;;;18.52;75.68
71126;BME280;58785;55.566;38.058;2023-06-24T12:54:59;99966.88;;;18.48;75.86
71126;BME280;58785;55.566;38.058;2023-06-24T12:57:25;99973.53;;;18.52;75.63
71126;BME280;58785;55.566;38.058;2023-06-24T12:59:51;99975.38;;;18.52;75.21
71126;BME280;58785;55.566;38.058;2023-06-24T13:02:17;99978.09;;;18.52;75.07
71126;BME280;58785;55.566;38.058;2023-06-24T13:04:42;99979.38;;;18.56;74.76
71126;BME280;58785;55.566;38.058;2023-06-24T13:07:08;99985.56;;;18.50;74.50
71126;BME280;58785;55.566;38.058;2023-06-24T13:09:35;99973.66;;;18.31;75.02
71126;BME280;58785;55.566;38.058;2023-06-24T13:12:00;99970.09;;;18.24;74.60
71126;BME280;58785;55.566;38.058;2023-06-24T13:14:26;99978.38;;;18.22;74.93